createdAt,value
2017-04-05T00:00:08.212Z,76.10
2017-04-05T00:01:07.885Z,76.40
2017-04-05T00:02:07.457Z,76.40
2017-04-05T00:03:07.879Z,76.40
2017-04-05T00:04:08.535Z,76.40
2017-04-05T00:05:08.152Z,76.60
2017-04-05T00:06:07.719Z,76.60
2017-04-05T00:07:07.419Z,77.40
2017-04-05T00:08:07.352Z,76.60
2017-04-05T00:09:06.927Z,76.80
2017-04-05T00:10:07.135Z,76.60
2017-04-05T00:11:06.831Z,76.50
2017-04-05T00:12:06.615Z,76.40
2017-04-05T00:13:07.043Z,76.40
2017-04-05T00:14:07.433Z,76.50
2017-04-05T00:15:07.736Z,76.50
2017-04-05T00:16:07.743Z,76.40
2017-04-05T00:17:15.541Z,76.40
2017-04-05T00:18:15.159Z,76.40
2017-04-05T00:19:15.819Z,76.70
2017-04-05T00:20:15.501Z,77.00
2017-04-05T00:21:15.062Z,77.20
2017-04-05T00:22:15.475Z,77.10
2017-04-05T00:26:14.781Z,77.10
2017-04-05T00:27:14.335Z,76.60
2017-04-05T00:28:14.395Z,76.70
2017-04-05T00:29:14.864Z,77.50
2017-04-05T00:30:14.439Z,76.80
2017-04-05T00:31:14.390Z,76.90
2017-04-05T00:32:14.026Z,76.80
2017-04-05T00:33:14.339Z,76.90
2017-04-05T00:34:14.705Z,77.00
2017-04-05T00:35:14.474Z,77.00
2017-04-05T00:36:14.044Z,77.00
2017-04-05T00:37:14.460Z,77.10
2017-04-05T00:38:14.379Z,77.40
2017-04-05T00:39:14.667Z,77.50
2017-04-05T00:41:14.386Z,77.90
2017-04-05T00:42:13.973Z,77.70
2017-04-05T00:43:13.732Z,77.60
2017-04-05T00:44:13.456Z,77.30
2017-04-05T00:45:13.119Z,77.10
2017-04-05T00:46:12.707Z,77.20
2017-04-05T00:47:13.136Z,77.10
2017-04-05T00:48:12.721Z,77.10
2017-04-05T00:49:13.022Z,77.20
2017-04-05T00:50:13.398Z,77.10
2017-04-05T00:51:12.936Z,76.90
2017-04-05T00:52:13.296Z,76.50
2017-04-05T00:53:12.855Z,76.00
2017-04-05T00:54:13.294Z,76.20
2017-04-05T00:55:13.249Z,77.00
2017-04-05T00:56:12.899Z,78.20
2017-04-05T00:57:12.478Z,78.60
2017-04-05T00:58:13.160Z,78.80
2017-04-05T00:59:13.402Z,79.10
2017-04-05T01:00:13.899Z,78.90
2017-04-05T01:01:13.950Z,78.90
2017-04-05T01:02:13.571Z,79.70
2017-04-05T01:03:13.182Z,78.90
2017-04-05T01:04:12.750Z,79.00
2017-04-05T01:05:12.688Z,78.90
2017-04-05T01:06:12.431Z,78.80
2017-04-05T01:07:12.939Z,78.80
2017-04-05T01:08:12.639Z,78.80
2017-04-05T01:09:12.240Z,78.60
2017-04-05T01:10:11.823Z,78.60
2017-04-05T01:11:11.815Z,78.60
2017-04-05T01:12:11.431Z,78.50
2017-04-05T01:13:11.102Z,78.40
2017-04-05T01:14:10.723Z,78.40
2017-04-05T01:15:10.608Z,79.10
2017-04-05T01:16:10.315Z,78.20
2017-04-05T01:17:09.888Z,78.30
2017-04-05T01:18:09.523Z,78.50
2017-04-05T01:19:09.102Z,78.40
2017-04-05T01:20:08.685Z,78.30
2017-04-05T01:21:08.651Z,78.20
2017-04-05T01:22:09.048Z,78.40
2017-04-05T01:23:08.691Z,78.60
2017-04-05T01:24:08.270Z,78.60
2017-04-05T01:25:08.654Z,78.60
2017-04-05T01:27:08.449Z,79.00
2017-04-05T01:28:07.990Z,79.20
2017-04-05T01:29:08.343Z,79.30
2017-04-05T01:30:08.088Z,79.10
2017-04-05T01:31:07.688Z,79.10
2017-04-05T01:32:07.686Z,79.00
2017-04-05T01:33:07.388Z,78.80
2017-04-05T01:34:07.111Z,78.90
2017-04-05T01:35:07.768Z,79.00
2017-04-05T01:36:07.321Z,79.00
2017-04-05T01:37:07.602Z,79.10
2017-04-05T01:38:07.181Z,79.30
2017-04-05T01:39:06.785Z,79.10
2017-04-05T01:40:06.703Z,79.20
2017-04-05T01:41:06.307Z,79.00
2017-04-05T01:42:05.910Z,78.60
2017-04-05T01:44:06.302Z,78.70
2017-04-05T01:45:06.044Z,78.90
2017-04-05T01:46:05.612Z,79.20
2017-04-05T01:47:06.023Z,79.00
2017-04-05T01:48:05.636Z,79.00
2017-04-05T01:49:05.268Z,79.00
2017-04-05T01:50:05.687Z,79.50
2017-04-05T01:51:07.675Z,79.00
2017-04-05T01:52:07.595Z,79.00
2017-04-05T01:53:07.580Z,78.60
2017-04-05T01:54:07.483Z,78.30
2017-04-05T01:55:07.074Z,78.50
2017-04-05T01:56:08.078Z,78.50
2017-04-05T01:57:08.393Z,78.90
2017-04-05T01:58:08.324Z,79.10
2017-04-05T01:59:09.324Z,79.70
2017-04-05T02:00:09.019Z,79.50
2017-04-05T02:01:08.587Z,79.20
2017-04-05T02:02:08.195Z,79.30
2017-04-05T02:03:07.861Z,79.40
2017-04-05T02:04:07.431Z,79.40
2017-04-05T02:05:07.783Z,79.50
2017-04-05T02:06:07.369Z,79.60
2017-04-05T02:07:07.399Z,79.70
2017-04-05T02:08:06.996Z,79.60
2017-04-05T02:09:06.580Z,79.50
2017-04-05T02:10:06.119Z,79.60
2017-04-05T02:11:05.699Z,79.40
2017-04-05T02:12:05.252Z,79.20
2017-04-05T02:13:04.839Z,79.00
2017-04-05T02:14:05.355Z,79.00
2017-04-05T02:15:05.644Z,79.00
2017-04-05T02:16:05.591Z,79.00
2017-04-05T02:17:05.319Z,78.90
2017-04-05T02:18:04.892Z,79.00
2017-04-05T02:19:06.155Z,79.20
2017-04-05T02:20:05.744Z,79.00
2017-04-05T02:21:05.332Z,79.20
2017-04-05T02:22:05.291Z,79.40
2017-04-05T02:23:04.884Z,79.30
2017-04-05T02:24:04.453Z,79.40
2017-04-05T02:25:04.415Z,79.60
2017-04-05T02:26:04.759Z,79.60
2017-04-05T02:27:05.243Z,79.80
2017-04-05T02:28:05.982Z,79.90
2017-04-05T02:29:06.268Z,80.10
2017-04-05T02:30:05.828Z,80.20
2017-04-05T02:31:05.380Z,80.20
2017-04-05T02:32:05.714Z,80.20
2017-04-05T02:33:05.428Z,80.40
2017-04-05T02:34:04.959Z,80.50
2017-04-05T02:35:04.520Z,80.50
2017-04-05T02:36:04.191Z,80.70
2017-04-05T02:37:04.967Z,80.80
2017-04-05T02:38:04.559Z,80.90
2017-04-05T02:39:04.385Z,80.50
2017-04-05T02:40:04.204Z,80.30
2017-04-05T02:41:03.780Z,80.20
2017-04-05T02:42:03.367Z,80.10
2017-04-05T02:43:02.983Z,80.70
2017-04-05T02:44:02.892Z,80.80
2017-04-05T02:45:02.471Z,80.70
2017-04-05T02:46:02.191Z,80.60
2017-04-05T02:47:01.858Z,80.70
2017-04-05T02:48:01.460Z,80.50
2017-04-05T02:49:01.047Z,80.40
2017-04-05T02:50:00.806Z,80.40
2017-04-05T02:51:01.138Z,80.40
2017-04-05T02:52:01.791Z,80.50
2017-04-05T02:53:01.386Z,80.80
2017-04-05T02:54:01.059Z,81.00
2017-04-05T02:55:01.340Z,81.90
2017-04-05T02:56:00.896Z,82.00
2017-04-05T02:57:00.767Z,81.90
2017-04-05T02:58:01.155Z,81.80
2017-04-05T02:59:00.868Z,81.90
2017-04-05T03:00:01.168Z,81.80
2017-04-05T03:01:00.707Z,81.80
2017-04-05T03:02:00.309Z,81.90
2017-04-05T03:03:00.070Z,81.80
2017-04-05T03:03:59.628Z,81.90
2017-04-05T03:04:59.357Z,81.80
2017-04-05T03:05:59.624Z,81.70
2017-04-05T03:06:59.184Z,81.60
2017-04-05T03:07:59.469Z,81.30
2017-04-05T03:08:59.048Z,81.60
2017-04-05T03:09:58.608Z,81.80
2017-04-05T03:10:58.926Z,82.80
2017-04-05T03:11:59.370Z,82.20
2017-04-05T03:12:58.910Z,82.30
2017-04-05T03:13:58.815Z,82.30
2017-04-05T03:14:58.642Z,82.40
2017-04-05T03:15:58.971Z,82.10
2017-04-05T03:16:58.543Z,81.90
2017-04-05T03:17:59.231Z,81.80
2017-04-05T03:18:58.775Z,81.90
2017-04-05T03:19:59.067Z,81.70
2017-04-05T03:20:58.775Z,81.80
2017-04-05T03:21:58.384Z,82.10
2017-04-05T03:22:58.674Z,82.10
2017-04-05T03:23:58.260Z,82.00
2017-04-05T03:24:57.822Z,81.90
2017-04-05T03:25:57.439Z,81.90
2017-04-05T03:26:57.004Z,81.90
2017-04-05T03:27:57.282Z,81.90
2017-04-05T03:28:56.984Z,82.00
2017-04-05T03:29:57.402Z,82.20
2017-04-05T03:30:57.735Z,82.30
2017-04-05T03:31:58.018Z,82.30
2017-04-05T03:32:57.599Z,82.30
2017-04-05T03:33:57.215Z,81.90
2017-04-05T03:34:56.771Z,81.60
2017-04-05T03:35:56.340Z,81.50
2017-04-05T03:36:56.633Z,81.50
2017-04-05T03:37:56.599Z,81.30
2017-04-05T03:38:56.139Z,81.30
2017-04-05T03:39:55.664Z,81.10
2017-04-05T03:40:55.362Z,81.20
2017-04-05T03:41:54.956Z,80.90
2017-04-05T03:42:55.522Z,80.70
2017-04-05T03:43:55.112Z,81.20
2017-04-05T03:44:54.671Z,81.70
2017-04-05T03:45:54.994Z,81.60
2017-04-05T03:46:54.547Z,81.80
2017-04-05T03:47:54.209Z,82.10
2017-04-05T03:48:53.787Z,82.40
2017-04-05T03:49:54.168Z,82.00
2017-04-05T03:50:53.754Z,82.10
2017-04-05T03:51:53.394Z,82.00
2017-04-05T03:52:53.695Z,81.40
2017-04-05T03:53:54.058Z,81.00
2017-04-05T03:54:53.600Z,80.90
2017-04-05T03:55:53.147Z,81.00
2017-04-05T03:56:52.779Z,81.10
2017-04-05T03:57:52.391Z,81.50
2017-04-05T03:58:51.960Z,81.80
2017-04-05T03:59:51.495Z,81.80
2017-04-05T04:00:51.791Z,81.90
2017-04-05T04:01:52.003Z,81.90
2017-04-05T04:02:51.723Z,81.80
2017-04-05T04:03:52.024Z,81.80
2017-04-05T04:04:51.628Z,81.90
2017-04-05T04:05:52.235Z,82.10
2017-04-05T04:06:51.856Z,82.20
2017-04-05T04:07:52.554Z,82.30
2017-04-05T04:08:52.298Z,82.40
2017-04-05T04:09:52.533Z,82.50
2017-04-05T04:10:52.235Z,82.50
2017-04-05T04:11:51.880Z,82.40
2017-04-05T04:12:51.491Z,82.50
2017-04-05T04:13:51.779Z,82.50
2017-04-05T04:14:51.608Z,82.70
2017-04-05T04:15:52.083Z,82.60
2017-04-05T04:16:51.657Z,82.80
2017-04-05T04:17:51.228Z,82.90
2017-04-05T04:18:51.496Z,82.40
2017-04-05T04:19:51.079Z,82.30
2017-04-05T04:20:50.685Z,82.10
2017-04-05T04:21:50.284Z,82.00
2017-04-05T04:22:49.818Z,81.80
2017-04-05T04:23:50.236Z,81.60
2017-04-05T04:24:49.779Z,81.90
2017-04-05T04:25:49.335Z,82.00
2017-04-05T04:26:49.659Z,83.00
2017-04-05T04:27:50.059Z,82.70
2017-04-05T04:28:49.636Z,82.90
2017-04-05T04:29:49.187Z,82.90
2017-04-05T04:30:48.766Z,83.10
2017-04-05T04:31:49.083Z,83.00
2017-04-05T04:32:49.592Z,83.00
2017-04-05T04:33:50.239Z,82.90
2017-04-05T04:34:50.038Z,83.00
2017-04-05T04:35:50.360Z,83.00
2017-04-05T04:36:49.891Z,83.10
2017-04-05T04:37:49.539Z,82.80
2017-04-05T04:38:50.024Z,82.60
2017-04-05T04:39:49.703Z,82.50
2017-04-05T04:40:49.238Z,82.70
2017-04-05T04:41:49.550Z,83.40
2017-04-05T04:42:49.827Z,83.50
2017-04-05T04:43:49.582Z,83.30
2017-04-05T04:44:49.142Z,83.20
2017-04-05T04:45:48.764Z,83.40
2017-04-05T04:46:49.055Z,83.20
2017-04-05T04:47:48.594Z,83.00
2017-04-05T04:48:48.139Z,83.00
2017-04-05T04:49:47.695Z,83.00
2017-04-05T04:50:47.353Z,83.20
2017-04-05T04:51:47.048Z,83.10
2017-04-05T04:52:46.595Z,83.30
2017-04-05T04:53:46.152Z,83.50
2017-04-05T04:54:46.444Z,83.50
2017-04-05T04:55:46.099Z,83.50
2017-04-05T04:56:45.772Z,83.10
2017-04-05T04:57:46.048Z,82.90
2017-04-05T04:58:45.608Z,83.10
2017-04-05T04:59:45.148Z,83.20
2017-04-05T05:00:44.819Z,82.90
2017-04-05T05:01:44.363Z,82.90
2017-04-05T05:02:43.958Z,83.00
2017-04-05T05:04:43.616Z,82.90
2017-04-05T05:05:44.627Z,82.80
2017-04-05T05:06:45.023Z,82.30
2017-04-05T05:07:45.505Z,81.90
2017-04-05T05:08:45.084Z,82.10
2017-04-05T05:09:44.668Z,82.20
2017-04-05T05:10:44.701Z,82.00
2017-04-05T05:11:44.500Z,81.80
2017-04-05T05:12:44.089Z,81.70
2017-04-05T05:13:43.807Z,81.90
2017-04-05T05:14:43.865Z,82.80
2017-04-05T05:15:44.200Z,83.70
2017-04-05T05:16:43.760Z,84.20
2017-04-05T05:18:43.233Z,84.40
2017-04-05T05:19:42.851Z,84.10
2017-04-05T05:20:42.550Z,83.90
2017-04-05T05:21:42.168Z,83.60
2017-04-05T05:22:42.503Z,83.40
2017-04-05T05:23:42.076Z,83.10
2017-04-05T05:24:42.595Z,83.20
2017-04-05T05:25:42.909Z,83.20
2017-04-05T05:26:43.373Z,83.20
2017-04-05T05:27:42.910Z,83.50
2017-04-05T05:28:42.510Z,83.80
2017-04-05T05:30:41.955Z,83.90
2017-04-05T05:31:41.527Z,83.90
2017-04-05T05:33:41.838Z,83.80
2017-04-05T05:34:41.536Z,83.70
2017-04-05T05:35:41.452Z,83.60
2017-04-05T05:37:40.854Z,83.40
2017-04-05T05:38:41.188Z,83.10
2017-04-05T05:39:40.780Z,83.50
2017-04-05T05:40:41.172Z,83.80
2017-04-05T05:41:40.799Z,84.00
2017-04-05T05:42:40.527Z,84.00
2017-04-05T05:43:40.111Z,83.80
2017-04-05T05:44:39.772Z,83.40
2017-04-05T05:45:39.314Z,83.00
2017-04-05T05:46:38.879Z,83.00
2017-04-05T05:47:39.199Z,82.90
2017-04-05T05:48:39.495Z,82.90
2017-04-05T05:50:40.317Z,83.00
2017-04-05T05:51:39.879Z,83.00
2017-04-05T05:52:39.452Z,82.90
2017-04-05T05:53:39.020Z,83.00
2017-04-05T05:54:39.345Z,83.70
2017-04-05T05:55:39.784Z,82.70
2017-04-05T05:56:39.344Z,82.70
2017-04-05T05:57:39.194Z,82.60
2017-04-05T05:58:39.185Z,82.60
2017-04-05T05:59:39.871Z,82.40
2017-04-05T06:00:39.410Z,82.40
2017-04-05T06:01:39.188Z,82.40
2017-04-05T06:03:38.632Z,82.40
2017-04-05T06:04:38.231Z,82.40
2017-04-05T06:05:38.076Z,82.60
2017-04-05T06:06:37.671Z,82.70
2017-04-05T06:07:37.277Z,82.80
2017-04-05T06:08:36.839Z,82.70
2017-04-05T06:09:36.564Z,82.60
2017-04-05T06:10:36.148Z,82.50
2017-04-05T06:11:35.730Z,82.60
2017-04-05T06:12:35.323Z,82.40
2017-04-05T06:13:34.930Z,82.30
2017-04-05T06:14:34.496Z,82.30
2017-04-05T06:15:34.188Z,82.30
2017-04-05T06:16:33.815Z,82.30
2017-04-05T06:17:33.466Z,82.00
2017-04-05T06:18:33.055Z,81.80
2017-04-05T06:19:33.351Z,81.60
2017-04-05T06:20:32.951Z,81.40
2017-04-05T06:21:32.730Z,81.30
2017-04-05T06:22:32.548Z,81.00
2017-04-05T06:23:32.178Z,80.70
2017-04-05T06:24:31.792Z,80.60
2017-04-05T06:25:31.404Z,80.40
2017-04-05T06:26:30.996Z,80.00
2017-04-05T06:27:30.620Z,79.90
2017-04-05T06:28:30.215Z,80.00
2017-04-05T06:29:29.795Z,79.80
2017-04-05T06:30:29.726Z,79.40
2017-04-05T06:31:29.336Z,79.10
2017-04-05T06:32:28.983Z,79.00
2017-04-05T06:33:29.016Z,78.70
2017-04-05T06:34:28.628Z,78.20
2017-04-05T06:35:28.259Z,78.70
2017-04-05T06:36:27.808Z,78.40
2017-04-05T06:37:27.465Z,78.50
2017-04-05T06:38:27.069Z,78.80
2017-04-05T06:39:27.373Z,78.70
2017-04-05T06:40:26.968Z,78.60
2017-04-05T06:41:26.496Z,78.40
2017-04-05T06:42:26.960Z,78.00
2017-04-05T06:43:26.543Z,77.80
2017-04-05T06:44:26.480Z,78.10
2017-04-05T06:45:26.109Z,77.40
2017-04-05T06:46:26.472Z,76.90
2017-04-05T06:47:26.081Z,77.10
2017-04-05T06:48:25.634Z,77.40
2017-04-05T06:49:25.783Z,77.40
2017-04-05T06:50:25.909Z,77.20
2017-04-05T06:51:25.859Z,77.10
2017-04-05T06:52:25.520Z,77.20
2017-04-05T06:53:25.098Z,76.80
2017-04-05T06:54:24.672Z,77.00
2017-04-05T06:55:24.246Z,76.60
2017-04-05T06:56:24.532Z,76.50
2017-04-05T06:58:24.187Z,75.60
2017-04-05T06:59:23.780Z,76.00
2017-04-05T07:00:24.242Z,75.70
2017-04-05T07:01:23.905Z,75.30
2017-04-05T07:02:23.908Z,75.20
2017-04-05T07:03:23.595Z,75.20
2017-04-05T07:04:23.197Z,74.70
2017-04-05T07:05:23.160Z,74.70
2017-04-05T07:06:22.780Z,74.60
2017-04-05T07:07:23.087Z,74.70
2017-04-05T07:08:23.406Z,74.70
2017-04-05T07:09:23.763Z,74.40
2017-04-05T07:10:23.683Z,74.50
2017-04-05T07:11:23.370Z,74.40
2017-04-05T07:12:23.003Z,74.60
2017-04-05T07:13:22.583Z,74.40
2017-04-05T07:14:22.167Z,74.20
2017-04-05T07:15:22.500Z,74.20
2017-04-05T07:16:22.843Z,74.50
2017-04-05T07:18:22.723Z,73.50
2017-04-05T07:19:22.650Z,73.30
2017-04-05T07:20:22.224Z,73.20
2017-04-05T07:21:21.903Z,73.00
2017-04-05T07:22:21.483Z,72.80
2017-04-05T07:23:21.400Z,73.00
2017-04-05T07:24:21.447Z,73.10
2017-04-05T07:25:21.080Z,72.70
2017-04-05T07:26:21.395Z,72.40
2017-04-05T07:27:21.079Z,72.10
2017-04-05T07:28:21.436Z,72.10
2017-04-05T07:29:22.487Z,72.90
2017-04-05T07:30:22.601Z,73.70
2017-04-05T07:31:23.026Z,74.20
2017-04-05T07:32:22.599Z,73.70
2017-04-05T07:33:22.289Z,72.90
2017-04-05T07:34:21.888Z,72.60
2017-04-05T07:35:21.470Z,72.20
2017-04-05T07:36:21.048Z,73.00
2017-04-05T07:37:21.405Z,73.30
2017-04-05T07:38:20.944Z,73.20
2017-04-05T07:39:20.493Z,73.60
2017-04-05T07:40:20.079Z,73.30
2017-04-05T07:41:19.651Z,72.50
2017-04-05T07:42:19.991Z,71.90
2017-04-05T07:43:19.896Z,73.20
2017-04-05T07:44:19.456Z,72.40
2017-04-05T07:45:19.044Z,72.30
2017-04-05T07:46:18.648Z,72.40
2017-04-05T07:47:18.263Z,71.80
2017-04-05T07:48:19.000Z,71.60
2017-04-05T07:49:19.259Z,73.10
2017-04-05T07:50:19.211Z,72.50
2017-04-05T07:51:19.546Z,71.50
2017-04-05T07:52:19.496Z,71.60
2017-04-05T07:53:19.107Z,71.50
2017-04-05T07:54:19.060Z,71.70
2017-04-05T07:55:18.984Z,70.60
2017-04-05T07:56:18.556Z,69.90
2017-04-05T07:57:18.258Z,70.70
2017-04-05T07:58:17.873Z,70.30
2017-04-05T07:59:17.440Z,69.20
2017-04-05T08:00:17.836Z,70.20
2017-04-05T08:01:17.513Z,70.50
2017-04-05T08:02:17.390Z,70.00
2017-04-05T08:03:17.416Z,69.30
2017-04-05T08:04:17.044Z,69.30
2017-04-05T08:05:16.611Z,70.70
2017-04-05T08:06:16.632Z,71.20
2017-04-05T08:07:16.554Z,71.40
2017-04-05T08:08:16.199Z,70.80
2017-04-05T08:09:15.836Z,70.30
2017-04-05T08:10:15.393Z,69.50
2017-04-05T08:11:15.377Z,69.70
2017-04-05T08:12:16.514Z,69.20
2017-04-05T08:14:17.000Z,70.40
2017-04-05T08:15:16.720Z,69.20
2017-04-05T08:16:16.964Z,69.40
2017-04-05T08:17:16.617Z,67.50
2017-04-05T08:18:16.219Z,67.50
2017-04-05T08:19:15.825Z,67.10
2017-04-05T08:20:15.380Z,67.00
2017-04-05T08:21:14.969Z,65.60
2017-04-05T08:22:14.964Z,64.60
2017-04-05T08:23:15.288Z,64.90
2017-04-05T08:24:14.894Z,65.70
2017-04-05T08:25:14.623Z,66.10
2017-04-05T08:26:14.292Z,67.80
2017-04-05T08:27:13.888Z,68.30
2017-04-05T08:28:13.470Z,68.70
2017-04-05T08:29:13.087Z,67.00
2017-04-05T08:30:12.644Z,65.70
2017-04-05T08:31:12.229Z,65.70
2017-04-05T08:32:11.789Z,64.70
2017-04-05T08:33:11.343Z,64.00
2017-04-05T08:34:10.963Z,63.20
2017-04-05T08:35:10.499Z,62.50
2017-04-05T08:36:10.452Z,62.30
2017-04-05T08:37:10.151Z,63.10
2017-04-05T08:38:10.160Z,63.90
2017-04-05T08:39:09.715Z,63.30
2017-04-05T08:40:09.615Z,63.10
2017-04-05T08:41:09.307Z,63.40
2017-04-05T08:42:08.873Z,64.20
2017-04-05T08:43:08.422Z,63.50
2017-04-05T08:44:08.107Z,62.90
2017-04-05T08:45:08.044Z,63.10
2017-04-05T08:46:08.943Z,63.40
2017-04-05T08:47:08.505Z,63.20
2017-04-05T08:48:09.500Z,62.10
2017-04-05T08:49:09.073Z,61.30
2017-04-05T08:50:09.025Z,60.40
2017-04-05T08:51:08.583Z,59.50
2017-04-05T08:53:07.968Z,59.70
2017-04-05T08:54:08.368Z,60.30
2017-04-05T08:55:08.275Z,60.70
2017-04-05T08:56:08.012Z,60.90
2017-04-05T08:57:07.767Z,59.70
2017-04-05T08:58:07.408Z,59.10
2017-04-05T08:59:08.124Z,58.70
2017-04-05T09:00:07.807Z,58.30
2017-04-05T09:01:07.357Z,58.40
2017-04-05T09:02:06.948Z,58.40
2017-04-05T09:03:06.543Z,58.60
2017-04-05T09:04:06.841Z,58.60
2017-04-05T09:05:06.380Z,58.50
2017-04-05T09:06:06.312Z,58.70
2017-04-05T09:07:06.312Z,58.60
2017-04-05T09:08:05.925Z,58.20
2017-04-05T09:09:06.268Z,58.10
2017-04-05T09:10:06.507Z,58.30
2017-04-05T09:11:06.045Z,57.70
2017-04-05T09:12:06.096Z,58.90
2017-04-05T09:13:06.558Z,58.20
2017-04-05T09:14:06.132Z,58.30
2017-04-05T09:15:05.783Z,58.10
2017-04-05T09:17:06.017Z,58.00
2017-04-05T09:19:05.780Z,57.20
2017-04-05T09:20:05.487Z,57.60
2017-04-05T09:21:05.138Z,56.40
2017-04-05T09:22:05.843Z,56.70
2017-04-05T09:23:05.482Z,56.90
2017-04-05T09:24:05.173Z,57.10
2017-04-05T09:25:05.577Z,57.10
2017-04-05T09:26:05.888Z,57.10
2017-04-05T09:27:06.327Z,57.00
2017-04-05T09:28:05.871Z,57.30
2017-04-05T09:29:06.279Z,58.40
2017-04-05T09:30:05.912Z,57.80
2017-04-05T09:31:06.284Z,57.00
2017-04-05T09:32:06.355Z,57.60
2017-04-05T09:33:07.086Z,58.30
2017-04-05T09:34:07.031Z,58.10
2017-04-05T09:35:06.615Z,57.50
2017-04-05T09:36:06.389Z,57.60
2017-04-05T09:37:06.777Z,57.90
2017-04-05T09:39:06.665Z,57.90
2017-04-05T09:40:06.593Z,58.20
2017-04-05T09:41:06.220Z,55.50
2017-04-05T09:42:06.535Z,54.60
2017-04-05T09:43:06.947Z,54.80
2017-04-05T09:44:07.349Z,54.60
2017-04-05T09:45:08.014Z,54.60
2017-04-05T09:46:07.996Z,55.20
2017-04-05T09:47:08.279Z,55.40
2017-04-05T09:48:07.947Z,54.70
2017-04-05T09:49:07.505Z,54.20
2017-04-05T09:50:07.928Z,55.10
2017-04-05T09:51:07.505Z,55.80
2017-04-05T09:52:08.252Z,54.40
2017-04-05T09:53:07.901Z,54.40
2017-04-05T09:54:07.888Z,54.90
2017-04-05T09:55:07.624Z,54.40
2017-04-05T09:56:07.268Z,54.40
2017-04-05T09:57:06.866Z,56.70
2017-04-05T09:58:06.534Z,53.80
2017-04-05T09:59:06.847Z,56.40
2017-04-05T10:00:06.483Z,54.40
2017-04-05T10:01:06.200Z,53.10
2017-04-05T10:02:05.824Z,53.10
2017-04-05T10:03:05.769Z,52.80
2017-04-05T10:04:06.179Z,51.70
2017-04-05T10:05:06.979Z,51.20
2017-04-05T10:06:06.587Z,50.80
2017-04-05T10:07:06.252Z,51.00
2017-04-05T10:08:05.848Z,51.20
2017-04-05T10:09:06.616Z,50.90
2017-04-05T10:10:07.007Z,51.40
2017-04-05T10:11:07.004Z,51.40
2017-04-05T10:12:06.660Z,52.20
2017-04-05T10:13:06.455Z,51.40
2017-04-05T10:14:06.803Z,53.10
2017-04-05T10:15:06.575Z,51.50
2017-04-05T10:16:06.979Z,51.20
2017-04-05T10:17:07.312Z,50.80
2017-04-05T10:18:06.983Z,50.70
2017-04-05T10:19:06.690Z,50.10
2017-04-05T10:20:07.036Z,49.50
2017-04-05T10:21:07.187Z,49.00
2017-04-05T10:22:07.116Z,49.10
2017-04-05T10:23:07.420Z,50.10
2017-04-05T10:24:07.062Z,49.30
2017-04-05T10:25:07.058Z,49.50
2017-04-05T10:26:07.504Z,50.40
2017-04-05T10:27:08.075Z,50.20
2017-04-05T10:28:07.671Z,48.40
2017-04-05T10:29:07.266Z,48.20
2017-04-05T10:30:06.886Z,48.10
2017-04-05T10:31:07.680Z,49.00
2017-04-05T10:32:07.247Z,48.70
2017-04-05T10:33:06.878Z,47.50
2017-04-05T10:34:06.569Z,48.10
2017-04-05T10:35:06.924Z,48.50
2017-04-05T10:36:07.673Z,47.10
2017-04-05T10:37:07.863Z,47.10
2017-04-05T10:38:07.471Z,47.60
2017-04-05T10:39:07.111Z,47.70
2017-04-05T10:40:06.761Z,48.10
2017-04-05T10:41:07.161Z,48.60
2017-04-05T10:42:07.878Z,48.60
2017-04-05T10:43:07.463Z,47.20
2017-04-05T10:44:07.388Z,47.40
2017-04-05T10:45:07.769Z,48.30
2017-04-05T10:46:07.359Z,49.20
2017-04-05T10:47:07.187Z,49.50
2017-04-05T10:48:07.848Z,47.00
2017-04-05T10:49:07.437Z,47.60
2017-04-05T10:50:07.419Z,46.80
2017-04-05T10:51:07.287Z,46.30
2017-04-05T10:52:06.877Z,45.70
2017-04-05T10:53:06.661Z,47.70
2017-04-05T10:54:06.393Z,46.70
2017-04-05T10:55:06.025Z,47.50
2017-04-05T10:56:06.412Z,48.00
2017-04-05T10:57:06.064Z,47.40
2017-04-05T10:58:06.422Z,45.50
2017-04-05T10:59:06.580Z,44.50
2017-04-05T11:00:06.192Z,44.10
2017-04-05T11:01:05.849Z,44.60
2017-04-05T11:02:05.673Z,45.00
2017-04-05T11:03:06.136Z,45.50
2017-04-05T11:04:07.143Z,45.90
2017-04-05T11:05:06.827Z,46.90
2017-04-05T11:06:07.222Z,46.10
2017-04-05T11:07:06.920Z,46.80
2017-04-05T11:08:06.935Z,46.00
2017-04-05T11:09:06.665Z,44.40
2017-04-05T11:10:06.683Z,44.10
2017-04-05T11:11:06.345Z,45.50
2017-04-05T11:12:06.168Z,46.70
2017-04-05T11:13:06.943Z,46.60
2017-04-05T11:14:06.523Z,46.90
2017-04-05T11:15:06.531Z,46.70
2017-04-05T11:16:06.160Z,46.40
2017-04-05T11:17:05.876Z,46.70
2017-04-05T11:18:06.324Z,47.60
2017-04-05T11:19:05.888Z,47.50
2017-04-05T11:20:05.974Z,47.60
2017-04-05T11:21:05.596Z,47.10
2017-04-05T11:22:05.216Z,46.30
2017-04-05T11:23:05.547Z,46.60
2017-04-05T11:24:05.211Z,47.10
2017-04-05T11:26:05.049Z,46.00
2017-04-05T11:27:05.020Z,45.60
2017-04-05T11:28:05.080Z,44.90
2017-04-05T11:29:06.483Z,44.60
2017-04-05T11:30:06.073Z,44.00
2017-04-05T11:31:05.848Z,44.20
2017-04-05T11:32:05.830Z,45.10
2017-04-05T11:33:05.433Z,43.80
2017-04-05T11:34:05.040Z,43.80
2017-04-05T11:35:04.903Z,43.60
2017-04-05T11:36:05.624Z,43.90
2017-04-05T11:37:06.005Z,44.00
2017-04-05T11:38:06.000Z,44.30
2017-04-05T11:39:06.431Z,43.90
2017-04-05T11:40:05.992Z,44.20
2017-04-05T11:41:05.783Z,44.00
2017-04-05T11:42:05.507Z,43.90
2017-04-05T11:43:05.795Z,43.80
2017-04-05T11:44:06.208Z,43.70
2017-04-05T11:45:06.123Z,43.70
2017-04-05T11:46:05.906Z,44.00
2017-04-05T11:47:06.713Z,43.80
2017-04-05T11:48:06.327Z,44.00
2017-04-05T11:49:06.745Z,44.30
2017-04-05T11:50:08.012Z,43.80
2017-04-05T11:51:07.875Z,43.30
2017-04-05T11:52:07.523Z,43.60
2017-04-05T11:53:07.147Z,43.20
2017-04-05T11:54:06.752Z,43.20
2017-04-05T11:55:06.539Z,43.30
2017-04-05T11:56:06.211Z,44.10
2017-04-05T11:57:05.806Z,42.70
2017-04-05T11:58:05.536Z,42.60
2017-04-05T11:59:05.103Z,41.90
2017-04-05T12:00:04.767Z,42.70
2017-04-05T12:02:04.215Z,43.30
2017-04-05T12:03:04.266Z,41.90
2017-04-05T12:04:03.968Z,41.70
2017-04-05T12:05:03.579Z,42.00
2017-04-05T12:06:03.902Z,42.70
2017-04-05T12:07:03.617Z,42.10
2017-04-05T12:08:03.197Z,43.00
2017-04-05T12:09:03.739Z,42.30
2017-04-05T12:10:03.355Z,42.80
2017-04-05T12:11:03.017Z,42.60
2017-04-05T12:12:03.352Z,43.70
2017-04-05T12:13:03.955Z,43.10
2017-04-05T12:14:03.612Z,43.10
2017-04-05T12:15:03.578Z,43.60
2017-04-05T12:16:04.628Z,42.60
2017-04-05T12:17:04.238Z,43.50
2017-04-05T12:18:03.891Z,44.90
2017-04-05T12:19:03.868Z,41.70
2017-04-05T12:20:03.531Z,39.90
2017-04-05T12:21:03.184Z,41.00
2017-04-05T12:22:03.578Z,39.80
2017-04-05T12:23:04.052Z,40.60
2017-04-05T12:24:03.632Z,41.70
2017-04-05T12:25:03.188Z,38.90
2017-04-05T12:26:02.811Z,39.60
2017-04-05T12:27:03.123Z,39.50
2017-04-05T12:28:03.417Z,39.00
2017-04-05T12:29:02.984Z,40.00
2017-04-05T12:30:02.531Z,39.60
2017-04-05T12:32:02.129Z,39.00
2017-04-05T12:33:01.813Z,38.80
2017-04-05T12:34:01.399Z,39.10
2017-04-05T12:35:01.157Z,39.30
2017-04-05T12:36:00.676Z,39.30
2017-04-05T12:37:00.835Z,39.80
2017-04-05T12:38:00.465Z,40.00
2017-04-05T12:39:00.447Z,40.30
2017-04-05T12:40:00.017Z,40.70
2017-04-05T12:40:59.665Z,41.30
2017-04-05T12:41:59.280Z,40.60
2017-04-05T12:44:57.479Z,40.50
2017-04-05T12:45:57.088Z,40.80
2017-04-05T12:46:56.707Z,40.60
2017-04-05T12:47:56.281Z,40.80
2017-04-05T12:48:55.904Z,40.40
2017-04-05T12:49:55.500Z,40.80
2017-04-05T12:50:55.127Z,40.40
2017-04-05T12:51:54.692Z,39.90
2017-04-05T12:52:54.365Z,42.20
2017-04-05T12:53:54.343Z,43.10
2017-04-05T12:54:53.923Z,42.10
2017-04-05T12:55:53.501Z,39.90
2017-04-05T12:56:53.076Z,38.00
2017-04-05T12:57:52.653Z,36.90
2017-04-05T12:58:52.301Z,37.80
2017-04-05T12:59:52.170Z,36.90
2017-04-05T13:00:51.769Z,36.50
2017-04-05T13:01:51.352Z,37.50
2017-04-05T13:02:50.944Z,37.70
2017-04-05T13:03:50.539Z,37.70
2017-04-05T13:04:50.125Z,39.40
2017-04-05T13:05:50.103Z,39.30
2017-04-05T13:06:49.763Z,36.50
2017-04-05T13:07:49.347Z,35.50
2017-04-05T13:08:48.920Z,35.70
2017-04-05T13:09:48.541Z,36.00
2017-04-05T13:10:48.172Z,34.30
2017-04-05T13:11:47.729Z,34.70
2017-04-05T13:12:47.283Z,34.50
2017-04-05T13:13:47.592Z,36.10
2017-04-05T13:15:47.926Z,34.10
2017-04-05T13:16:48.307Z,34.10